Crescent Beach, South Carolina
Current Conditions -  °F | °C
As of 5:53 PM on Friday 31 Oct 2014 (Local Time) from KCRE Reporting Station
Clear Clear  
Wind Chill: 64°   Ceiling: Unl
Heat Index: 64°   Visibility: 10mi
Dew Point: 45°   Wind: 3mph
Humidity: 50%   Direction: 360°N
Pressure: 29.78"   Gusts: NA
Location:  33.8371°N, 78.6471°W
Report Text: KCRE 312153Z 36003KT 10SM CLR 18/07 A2978 RMK AO1 SLP085 T01780072
Loading
Personal Weather Stations






























Interactive Weather Map
Tropical Storm Tracking
New forecast layout! Learn more

10-Day Weather Forecast

Advertisements
Track Severe Weather on mobile